Time;durP1;ratioP1;P1;durP2;ratioP2;P2;SDS_P1;SDS_P2;PMS_P1;PMS_P2;Temp;Humidity;BMP_temperature;BMP_pressure;BME280_temperature;BME280_humidity;BME280_pressure;Samples;Min_cycle;Max_cycle;Signal;HPM_P1;HPM_P2
2022/01/22 09:08:40;;;;;;;6.15;3.50;;;;;;;;;;6308269;22;21296;31
2022/01/22 09:11:06;;;;;;;6.30;3.35;;;;;;;;;;6341491;22;20023;-84
2022/01/22 09:13:33;;;;;;;4.95;3.42;;;;;;;;;;6339996;22;20015;-86
2022/01/22 10:15:10;;;;;;;4.70;3.50;;;;;;;;;;6387414;22;20021;-83
2022/01/22 10:17:52;;;;;;;6.68;3.95;;;;;;;;;;6369674;22;20442;-81
2022/01/22 10:20:20;;;;;;;5.70;3.85;;;;;;;;;;6369543;22;20374;-86
2022/01/22 10:22:46;;;;;;;5.20;4.68;;;;;;;;;;6371779;22;20119;-82
2022/01/22 10:25:27;;;;;;;5.70;4.20;;;;;;;;;;6371717;22;20417;-83
2022/01/22 10:27:57;;;;;;;4.55;4.15;;;;;;;;;;6371598;22;20409;-83
2022/01/22 10:30:25;;;;;;;5.25;4.45;;;;;;;;;;6371995;22;20018;-86
2022/01/22 10:33:05;;;;;;;5.80;4.20;;;;;;;;;;6370535;22;20002;-84
2022/01/22 10:35:31;;;;;;;;;;;;;;;;;;6372814;22;20009;-84
2022/01/22 10:38:01;;;;;;;4.90;4.50;;;;;;;;;;6371734;22;20365;-83
2022/01/22 10:40:29;;;;;;;5.28;4.25;;;;;;;;;;6372224;22;20010;-84
2022/01/22 10:43:15;;;;;;;7.05;4.05;;;;;;;;;;6371361;22;19998;-86
2022/01/22 10:45:42;;;;;;;4.90;4.40;;;;;;;;;;6371444;22;19999;-83
2022/01/22 10:48:21;;;;;;;6.53;4.10;;;;;;;;;;6371659;22;20129;-86
2022/01/22 10:51:00;;;;;;;4.60;4.20;;;;;;;;;;6371395;22;19998;-84
2022/01/22 10:53:35;;;;;;;5.25;4.75;;;;;;;;;;6371740;22;20007;-84
2022/01/22 10:56:04;;;;;;;6.07;4.68;;;;;;;;;;6371335;22;20044;-84
2022/01/22 10:58:31;;;;;;;5.75;4.28;;;;;;;;;;6371339;22;20036;-84
2022/01/22 11:01:04;;;;;;;4.70;4.30;;;;;;;;;;6369430;22;20032;-84
2022/01/22 11:03:31;;;;;;;5.07;4.25;;;;;;;;;;6371372;22;20007;-84
2022/01/22 11:05:59;;;;;;;6.70;4.65;;;;;;;;;;6371472;22;19995;-85
2022/01/22 11:08:28;;;;;;;5.25;4.40;;;;;;;;;;6370932;22;20435;-84
2022/01/22 11:10:53;;;;;;;4.47;4.15;;;;;;;;;;6371615;22;20364;-84
2022/01/22 11:13:19;;;;;;;4.93;4.45;;;;;;;;;;6371415;22;20034;-84
2022/01/22 11:15:45;;;;;;;4.35;3.95;;;;;;;;;;6371296;22;20020;-85
2022/01/22 11:18:11;;;;;;;4.20;3.80;;;;;;;;;;6371063;22;20086;-85
2022/01/22 11:20:38;;;;;;;5.30;3.55;;;;;;;;;;6371543;22;20003;-86
2022/01/22 11:23:04;;;;;;;3.55;2.97;;;;;;;;;;6371083;22;19999;-85
2022/01/22 11:25:33;;;;;;;3.53;3.08;;;;;;;;;;6371558;22;20081;-85
2022/01/22 11:28:00;;;;;;;3.70;3.40;;;;;;;;;;6371320;22;20424;-84
2022/01/22 11:30:27;;;;;;;3.65;2.95;;;;;;;;;;6371468;22;20048;-84
2022/01/22 11:32:57;;;;;;;3.20;2.85;;;;;;;;;;6370356;22;20361;-83
2022/01/22 11:35:44;;;;;;;3.78;3.08;;;;;;;;;;6371501;22;20081;-83
2022/01/22 11:38:15;;;;;;;2.85;2.58;;;;;;;;;;6370983;22;20002;-84
2022/01/22 11:40:41;;;;;;;3.88;3.30;;;;;;;;;;6371084;22;20002;-87
2022/01/22 11:43:12;;;;;;;3.47;2.90;;;;;;;;;;6369325;22;20359;-85
2022/01/22 11:45:43;;;;;;;3.70;3.25;;;;;;;;;;6370903;22;20009;-85
2022/01/22 11:48:25;;;;;;;4.07;3.40;;;;;;;;;;6370169;22;20048;-86
2022/01/22 11:50:55;;;;;;;5.22;3.55;;;;;;;;;;6371168;22;19994;-86
2022/01/22 11:53:32;;;;;;;3.70;3.22;;;;;;;;;;6370828;22;20005;-86
2022/01/22 11:56:23;;;;;;;3.22;2.92;;;;;;;;;;6371573;22;20006;-87
2022/01/22 11:59:02;;;;;;;6.88;3.13;;;;;;;;;;6370943;22;20006;-85
2022/01/22 12:01:50;;;;;;;6.43;4.20;;;;;;;;;;6369299;22;20006;-87
2022/01/22 12:04:23;;;;;;;3.70;3.35;;;;;;;;;;6369362;22;20002;-85
2022/01/22 12:07:19;;;;;;;4.25;3.17;;;;;;;;;;6370295;22;20025;-92
2022/01/22 12:10:04;;;;;;;4.97;3.03;;;;;;;;;;6368574;22;20492;-89
2022/01/22 12:15:19;;;;;;;3.85;2.60;;;;;;;;;;6372964;22;20017;-88
2022/01/22 12:17:54;;;;;;;3.72;2.65;;;;;;;;;;6378538;22;20002;-88
2022/01/22 12:23:05;;;;;;;4.10;2.58;;;;;;;;;;6373413;22;20452;-84
2022/01/22 12:25:30;;;;;;;3.17;2.47;;;;;;;;;;6371340;22;20030;-82
2022/01/22 12:27:58;;;;;;;4.20;2.13;;;;;;;;;;6372744;22;20014;-81
2022/01/22 12:30:44;;;;;;;2.40;2.20;;;;;;;;;;6372878;22;20025;-81
2022/01/22 12:33:15;;;;;;;4.40;2.78;;;;;;;;;;6373649;22;19999;-82
2022/01/22 12:35:46;;;;;;;3.08;2.58;;;;;;;;;;6373734;22;20005;-82
2022/01/22 12:38:37;;;;;;;3.40;2.42;;;;;;;;;;6373408;22;20080;-81
2022/01/22 12:44:39;;;;;;;3.42;2.67;;;;;;;;;;6383280;22;20033;-82
2022/01/22 12:47:10;;;;;;;2.72;2.00;;;;;;;;;;6372448;22;20086;-81
2022/01/22 12:49:37;;;;;;;4.13;2.30;;;;;;;;;;6372234;22;20421;-82
2022/01/22 12:52:05;;;;;;;2.45;1.50;;;;;;;;;;6372485;22;20481;-81
2022/01/22 12:54:36;;;;;;;5.32;2.20;;;;;;;;;;6372811;22;20032;-82
2022/01/22 12:57:16;;;;;;;2.65;2.10;;;;;;;;;;6372111;22;20032;-81
2022/01/22 13:00:06;;;;;;;3.63;2.63;;;;;;;;;;6372235;22;20063;-81
2022/01/22 13:02:37;;;;;;;3.58;2.15;;;;;;;;;;6372318;22;20005;-81
2022/01/22 13:05:03;;;;;;;4.28;2.50;;;;;;;;;;6372201;22;20379;-81
2022/01/22 13:07:37;;;;;;;2.97;2.58;;;;;;;;;;6372043;22;20009;-82
2022/01/22 13:10:06;;;;;;;1.60;1.38;;;;;;;;;;6372194;22;19998;-83
2022/01/22 13:12:33;;;;;;;3.80;3.40;;;;;;;;;;6372462;22;20093;-80
2022/01/22 13:14:58;;;;;;;2.90;2.17;;;;;;;;;;6371986;22;20034;-81
2022/01/22 13:17:33;;;;;;;3.33;2.13;;;;;;;;;;6372310;22;20066;-81
2022/01/22 13:19:59;;;;;;;4.88;1.70;;;;;;;;;;6372004;22;20010;-80
2022/01/22 13:22:36;;;;;;;2.40;1.63;;;;;;;;;;6372098;22;19998;-81
2022/01/22 13:25:11;;;;;;;5.88;2.22;;;;;;;;;;6371651;22;20379;-81
2022/01/22 13:27:39;;;;;;;4.18;2.88;;;;;;;;;;6371993;22;20089;-81
2022/01/22 13:30:07;;;;;;;3.05;1.92;;;;;;;;;;6372159;22;19995;-81
2022/01/22 13:32:52;;;;;;;6.65;1.90;;;;;;;;;;6371900;22;20307;-81
2022/01/22 13:49:25;;;;;;;3.25;2.00;;;;;;;;;;6371902;22;20009;-81
2022/01/22 13:51:51;;;;;;;3.65;1.90;;;;;;;;;;6371842;22;20090;-81
2022/01/22 13:54:17;;;;;;;3.25;2.20;;;;;;;;;;6371773;22;20075;-85
2022/01/22 13:56:56;;;;;;;2.05;1.85;;;;;;;;;;6371726;22;20006;-82
2022/01/22 13:59:43;;;;;;;3.50;2.50;;;;;;;;;;6371779;22;20010;-82
2022/01/22 14:02:50;;;;;;;7.50;7.00;;;;;;;;;;6370467;22;19998;-80
2022/01/22 14:05:07;;;;;;;3.05;2.33;;;;;;;;;;6370871;22;20496;-82
2022/01/22 14:07:37;;;;;;;3.63;1.90;;;;;;;;;;6371941;22;20006;-82
2022/01/22 14:10:07;;;;;;;2.70;1.77;;;;;;;;;;6343474;22;20002;-82
2022/01/22 14:12:50;;;;;;;7.63;4.00;;;;;;;;;;6371485;22;20002;-82
2022/01/22 14:15:27;;;;;;;14.05;6.72;;;;;;;;;;6371578;22;20440;-82
2022/01/22 14:18:19;;;;;;;3.17;1.90;;;;;;;;;;6371557;22;20456;-82
2022/01/22 14:20:44;;;;;;;13.52;7.60;;;;;;;;;;6371525;22;20003;-83
2022/01/22 14:23:19;;;;;;;5.50;3.75;;;;;;;;;;6371611;22;20340;-81
2022/01/22 14:26:03;;;;;;;5.30;3.35;;;;;;;;;;6373966;22;20042;-83
2022/01/22 14:28:47;;;;;;;4.00;2.28;;;;;;;;;;6371040;22;20010;-83
2022/01/22 14:31:24;;;;;;;4.70;2.97;;;;;;;;;;6371629;22;20321;-84
2022/01/22 14:33:50;;;;;;;5.45;2.70;;;;;;;;;;6371830;22;20028;-83
2022/01/22 14:36:19;;;;;;;5.55;3.20;;;;;;;;;;6371219;22;20002;-83
2022/01/22 14:38:51;;;;;;;3.03;2.45;;;;;;;;;;6371818;22;20006;-83
2022/01/22 17:26:32;;;;;;;8.32;4.55;;;;;;;;;;6360076;22;20025;-84
2022/01/22 17:28:57;;;;;;;6.30;4.13;;;;;;;;;;6340660;22;20011;-85
2022/01/22 17:31:23;;;;;;;7.18;4.85;;;;;;;;;;6339691;22;20089;-85
2022/01/22 17:33:49;;;;;;;7.78;4.50;;;;;;;;;;6319751;22;20074;-84
2022/01/22 17:36:15;;;;;;;7.43;3.88;;;;;;;;;;6308451;22;20437;-85
2022/01/22 17:38:41;;;;;;;7.25;3.67;;;;;;;;;;6308821;22;20026;-85
2022/01/22 17:41:09;;;;;;;11.35;5.40;;;;;;;;;;6309278;22;20003;-86
2022/01/22 17:43:37;;;;;;;9.35;4.63;;;;;;;;;;6309196;22;20422;-85
2022/01/22 17:46:07;;;;;;;7.13;4.25;;;;;;;;;;6309097;22;20307;-85
2022/01/22 17:48:34;;;;;;;8.35;4.70;;;;;;;;;;6308834;22;20003;-85
2022/01/22 17:51:00;;;;;;;6.60;4.20;;;;;;;;;;6309226;22;20010;-85
2022/01/22 17:53:27;;;;;;;6.55;4.70;;;;;;;;;;6308678;22;20484;-84
2022/01/22 17:55:54;;;;;;;8.70;4.95;;;;;;;;;;6309342;22;19999;-85
2022/01/22 17:58:20;;;;;;;6.57;4.07;;;;;;;;;;6308982;22;20014;-85
2022/01/22 18:00:47;;;;;;;8.52;4.65;;;;;;;;;;6308830;22;20398;-85
2022/01/22 18:03:13;;;;;;;7.47;4.50;;;;;;;;;;6308741;22;20078;-85
2022/01/22 18:05:39;;;;;;;6.13;4.25;;;;;;;;;;6311851;22;19995;-83
2022/01/22 18:08:04;;;;;;;7.35;4.82;;;;;;;;;;6313396;22;20007;-81
2022/01/22 18:10:34;;;;;;;9.55;6.35;;;;;;;;;;6313944;22;20057;-87
2022/01/22 18:12:59;;;;;;;6.85;5.20;;;;;;;;;;6307221;22;19999;-86
2022/01/22 18:15:25;;;;;;;11.95;8.40;;;;;;;;;;6307027;22;20041;-84
2022/01/22 18:17:50;;;;;;;13.73;7.45;;;;;;;;;;6306458;22;20003;-84
2022/01/22 18:20:16;;;;;;;10.35;7.75;;;;;;;;;;6308299;22;20449;-83
2022/01/22 18:22:41;;;;;;;15.32;8.18;;;;;;;;;;6309080;22;19995;-82
2022/01/22 18:25:07;;;;;;;11.80;7.72;;;;;;;;;;6309023;22;20000;-83
2022/01/22 18:27:33;;;;;;;10.05;6.70;;;;;;;;;;6306834;22;20046;-86
2022/01/22 18:29:58;;;;;;;10.02;6.93;;;;;;;;;;6308688;22;20003;-85
2022/01/22 18:32:23;;;;;;;11.57;7.55;;;;;;;;;;6308344;22;20067;-85
2022/01/22 18:34:49;;;;;;;7.82;6.07;;;;;;;;;;6308533;22;20003;-85
2022/01/22 18:37:14;;;;;;;8.98;5.90;;;;;;;;;;6308653;22;20033;-85
2022/01/22 18:39:40;;;;;;;7.60;5.85;;;;;;;;;;6308614;22;20007;-84
2022/01/22 18:42:06;;;;;;;9.10;5.90;;;;;;;;;;6308928;22;20070;-84
2022/01/22 18:44:32;;;;;;;10.25;6.35;;;;;;;;;;6307122;22;20014;-85
2022/01/22 18:46:58;;;;;;;8.48;5.50;;;;;;;;;;6307427;22;20007;-85
2022/01/22 18:49:23;;;;;;;12.73;7.10;;;;;;;;;;6307256;22;20010;-85
2022/01/22 18:51:57;;;;;;;11.07;6.47;;;;;;;;;;6308660;22;20031;-87
2022/01/22 18:54:22;;;;;;;8.57;5.90;;;;;;;;;;6308452;22;20003;-86
2022/01/22 18:57:29;;;;;;;10.88;7.20;;;;;;;;;;6312607;22;20007;-83
2022/01/22 18:59:55;;;;;;;10.98;7.10;;;;;;;;;;6296092;22;20003;-85
2022/01/22 19:02:21;;;;;;;11.02;7.90;;;;;;;;;;6308943;22;20082;-83
2022/01/22 19:04:46;;;;;;;10.57;9.02;;;;;;;;;;6308276;22;20414;-85
2022/01/22 19:07:12;;;;;;;17.42;9.00;;;;;;;;;;6306634;22;20010;-85
2022/01/22 19:09:38;;;;;;;14.88;10.32;;;;;;;;;;6306894;22;20326;-83
2022/01/22 19:12:03;;;;;;;20.05;11.52;;;;;;;;;;6308303;22;20021;-84
2022/01/22 19:14:29;;;;;;;16.23;11.80;;;;;;;;;;6308144;22;20003;-85
2022/01/22 19:16:55;;;;;;;13.95;10.05;;;;;;;;;;6308310;22;20129;-83
2022/01/22 19:19:20;;;;;;;15.55;9.18;;;;;;;;;;6308140;22;19999;-84
2022/01/22 19:24:19;;;;;;;15.50;10.45;;;;;;;;;;6310468;22;20010;-84
2022/01/22 19:29:29;;;;;;;12.38;7.45;;;;;;;;;;6308503;22;20042;-84
2022/01/22 19:31:54;;;;;;;14.10;8.13;;;;;;;;;;6308001;22;19999;-83
2022/01/22 19:34:20;;;;;;;21.70;13.65;;;;;;;;;;6308369;22;20439;-84
2022/01/22 19:36:46;;;;;;;25.70;15.02;;;;;;;;;;6308198;22;20035;-84
2022/01/22 19:39:12;;;;;;;15.38;9.05;;;;;;;;;;6308040;22;20063;-83
2022/01/22 19:41:43;;;;;;;15.25;8.60;;;;;;;;;;6308044;22;20054;-85
2022/01/22 19:44:17;;;;;;;16.75;8.85;;;;;;;;;;6307501;22;20026;-84
2022/01/22 19:46:43;;;;;;;11.32;6.95;;;;;;;;;;6307925;22;20007;-84
2022/01/22 19:49:09;;;;;;;10.32;7.15;;;;;;;;;;6307958;22;20007;-83
2022/01/22 19:51:35;;;;;;;12.57;7.78;;;;;;;;;;6307809;22;20030;-84
2022/01/22 19:54:02;;;;;;;13.63;8.15;;;;;;;;;;6306352;22;20005;-85
2022/01/22 19:56:29;;;;;;;8.98;6.75;;;;;;;;;;6306232;22;20012;-85
2022/01/22 19:58:55;;;;;;;16.08;13.15;;;;;;;;;;6306501;22;20011;-83
2022/01/22 20:01:20;;;;;;;62.28;37.50;;;;;;;;;;6307936;22;20009;-85
2022/01/22 20:03:46;;;;;;;42.55;27.77;;;;;;;;;;6307893;22;20003;-84
2022/01/22 20:06:11;;;;;;;19.67;13.57;;;;;;;;;;6306188;22;20003;-84
2022/01/22 20:08:38;;;;;;;11.45;6.28;;;;;;;;;;6307980;22;20363;-84
2022/01/22 20:11:04;;;;;;;20.83;14.95;;;;;;;;;;6308179;22;20003;-85
2022/01/22 20:13:30;;;;;;;11.02;8.25;;;;;;;;;;6306207;22;19999;-85
2022/01/22 20:15:57;;;;;;;10.38;6.80;;;;;;;;;;6306150;22;20008;-85
2022/01/22 20:18:26;;;;;;;10.82;6.43;;;;;;;;;;6308209;22;19999;-95
2022/01/22 20:20:52;;;;;;;9.57;6.93;;;;;;;;;;6306778;22;20062;-91
2022/01/22 20:23:18;;;;;;;19.48;11.13;;;;;;;;;;6307054;22;20318;-91
2022/01/22 20:25:44;;;;;;;14.35;8.43;;;;;;;;;;6307274;22;20014;-88
2022/01/22 20:28:09;;;;;;;13.15;7.13;;;;;;;;;;6307855;22;20034;-89
2022/01/22 20:30:35;;;;;;;8.40;5.38;;;;;;;;;;6308128;22;20049;-89
2022/01/22 20:33:02;;;;;;;8.93;5.07;;;;;;;;;;6307427;22;20013;-89
2022/01/22 20:35:28;;;;;;;8.00;4.97;;;;;;;;;;6308369;22;20007;-89
2022/01/22 20:37:55;;;;;;;9.05;5.47;;;;;;;;;;6310965;22;20002;-90
2022/01/22 20:40:20;;;;;;;8.90;6.28;;;;;;;;;;6310472;22;20004;-89
2022/01/22 20:42:46;;;;;;;11.57;7.00;;;;;;;;;;6311096;22;20011;-84
2022/01/22 20:45:13;;;;;;;11.18;6.57;;;;;;;;;;6309630;22;20002;-85
2022/01/22 20:47:40;;;;;;;11.82;6.78;;;;;;;;;;6309643;22;20023;-84
2022/01/22 20:50:06;;;;;;;11.77;6.45;;;;;;;;;;6308116;22;20081;-83
2022/01/22 20:52:32;;;;;;;8.75;7.65;;;;;;;;;;6307997;22;20018;-84
2022/01/22 20:54:57;;;;;;;6.78;5.53;;;;;;;;;;6309631;22;19999;-84
2022/01/22 20:57:25;;;;;;;6.60;4.70;;;;;;;;;;6309712;22;19999;-83
2022/01/22 20:59:51;;;;;;;8.18;4.55;;;;;;;;;;6309667;22;20326;-83
2022/01/22 21:02:16;;;;;;;6.57;5.50;;;;;;;;;;6309290;22;19999;-84
2022/01/22 21:04:42;;;;;;;10.30;5.22;;;;;;;;;;6309670;22;20002;-84
2022/01/22 21:07:07;;;;;;;5.00;3.70;;;;;;;;;;6309646;22;20003;-85
2022/01/22 21:09:33;;;;;;;6.22;4.43;;;;;;;;;;6309677;22;20397;-85
2022/01/22 21:11:58;;;;;;;6.35;3.35;;;;;;;;;;6309443;22;20023;-85
2022/01/22 21:14:25;;;;;;;4.15;3.05;;;;;;;;;;6307765;22;20043;-84
2022/01/22 21:16:51;;;;;;;5.05;2.47;;;;;;;;;;6309644;22;19996;-85
2022/01/22 21:19:22;;;;;;;6.22;3.95;;;;;;;;;;6309421;22;20010;-85
2022/01/22 21:21:48;;;;;;;4.80;3.85;;;;;;;;;;6309385;22;20325;-84
2022/01/22 21:24:15;;;;;;;5.40;4.15;;;;;;;;;;6307533;22;20003;-83
2022/01/22 21:26:40;;;;;;;5.05;3.85;;;;;;;;;;6309265;22;20045;-83
2022/01/22 21:29:05;;;;;;;6.68;4.55;;;;;;;;;;6309554;22;20007;-82
2022/01/22 21:31:31;;;;;;;7.38;4.68;;;;;;;;;;6307504;22;20007;-82
2022/01/22 21:33:57;;;;;;;6.35;4.90;;;;;;;;;;6309287;22;20017;-83
2022/01/22 21:36:43;;;;;;;18.38;11.20;;;;;;;;;;6309301;22;20034;-83
2022/01/22 21:41:38;;;;;;;9.33;6.23;;;;;;;;;;6320060;22;20014;-84
2022/01/22 21:44:04;;;;;;;10.13;6.43;;;;;;;;;;6307291;22;20007;-83
2022/01/22 21:46:29;;;;;;;11.88;6.70;;;;;;;;;;6309081;22;20003;-83
2022/01/22 21:48:57;;;;;;;8.10;5.93;;;;;;;;;;6309169;22;20031;-84
2022/01/22 21:51:22;;;;;;;8.98;5.85;;;;;;;;;;6307705;22;20030;-84
2022/01/22 21:53:52;;;;;;;8.02;5.50;;;;;;;;;;6309031;22;20434;-84
2022/01/22 21:56:18;;;;;;;12.52;4.93;;;;;;;;;;6309025;22;19999;-84
2022/01/22 21:58:44;;;;;;;9.23;5.13;;;;;;;;;;6309339;22;20380;-84
2022/01/22 22:01:17;;;;;;;8.05;5.00;;;;;;;;;;6309887;22;20418;-84
2022/01/22 22:03:42;;;;;;;8.38;5.00;;;;;;;;;;6309345;22;20334;-84
2022/01/22 22:06:09;;;;;;;6.90;4.35;;;;;;;;;;6309323;22;20003;-84
2022/01/22 22:08:35;;;;;;;6.82;4.75;;;;;;;;;;6307703;22;20015;-84
2022/01/22 22:11:01;;;;;;;10.50;4.53;;;;;;;;;;6307755;22;20453;-84
2022/01/22 22:13:26;;;;;;;8.45;5.00;;;;;;;;;;6307692;22;20003;-84
2022/01/22 22:15:52;;;;;;;12.40;6.43;;;;;;;;;;6308373;22;20003;-86
2022/01/22 22:18:18;;;;;;;10.82;5.72;;;;;;;;;;6307514;22;20475;-85
2022/01/22 22:20:43;;;;;;;10.90;5.43;;;;;;;;;;6307072;22;20086;-85
2022/01/22 22:23:10;;;;;;;15.50;7.50;;;;;;;;;;6308879;22;20010;-85
2022/01/22 22:25:36;;;;;;;14.27;8.63;;;;;;;;;;6307583;22;20065;-85
2022/01/22 22:28:03;;;;;;;12.88;7.20;;;;;;;;;;6307216;22;20426;-84
